Time;durP1;ratioP1;P1;durP2;ratioP2;P2;SDS_P1;SDS_P2;PMS_P1;PMS_P2;Temp;Humidity;BMP_temperature;BMP_pressure;BME280_temperature;BME280_humidity;BME280_pressure;Samples;Min_cycle;Max_cycle;Signal;HPM_P1;HPM_P2
2023/02/02 00:01:26;;;;;;;2.45;0.85;;;17.90;68.00;;;;;;6099616;23;20017;-72
2023/02/02 00:03:52;;;;;;;1.25;0.75;;;17.90;68.10;;;;;;6098826;23;20009;-72
2023/02/02 00:06:19;;;;;;;1.23;0.70;;;17.90;68.20;;;;;;6099020;23;20014;-72
2023/02/02 00:08:44;;;;;;;1.02;0.52;;;17.90;68.40;;;;;;6098992;23;20009;-72
2023/02/02 00:11:10;;;;;;;1.35;0.88;;;17.80;68.60;;;;;;6098883;23;20002;-72
2023/02/02 00:13:36;;;;;;;1.42;0.77;;;17.80;68.70;;;;;;6098957;23;20002;-72
2023/02/02 00:16:20;;;;;;;1.60;0.73;;;17.80;68.70;;;;;;6098846;23;20014;-72
2023/02/02 00:18:47;;;;;;;3.70;0.88;;;17.80;68.80;;;;;;6098876;23;20006;-72
2023/02/02 00:21:12;;;;;;;1.50;0.90;;;17.70;68.90;;;;;;6184754;23;20433;-71
2023/02/02 00:23:38;;;;;;;1.23;0.77;;;17.70;69.10;;;;;;6215263;23;20023;-72
2023/02/02 00:26:04;;;;;;;2.50;0.90;;;17.70;69.30;;;;;;6214459;23;20019;-72
2023/02/02 00:28:29;;;;;;;1.15;0.73;;;17.60;69.60;;;;;;6213479;23;20004;-72
2023/02/02 00:30:55;;;;;;;2.22;0.60;;;17.60;69.70;;;;;;6215052;23;20008;-71
2023/02/02 00:33:20;;;;;;;0.85;0.60;;;17.60;69.80;;;;;;6213918;23;20027;-71
2023/02/02 00:35:46;;;;;;;1.05;0.73;;;17.60;70.00;;;;;;6213670;23;20433;-71
2023/02/02 00:38:12;;;;;;;2.13;0.80;;;17.60;70.10;;;;;;6214919;23;20000;-72
2023/02/02 00:40:37;;;;;;;1.70;0.80;;;17.50;70.10;;;;;;6213330;23;20390;-72
2023/02/02 00:43:03;;;;;;;0.95;0.73;;;17.50;70.20;;;;;;6214879;23;20031;-72
2023/02/02 00:45:29;;;;;;;2.95;0.98;;;17.50;71.30;;;;;;6213597;23;20341;-72
2023/02/02 00:47:55;;;;;;;1.73;0.70;;;17.50;70.40;;;;;;6213217;23;20513;-72
2023/02/02 00:50:20;;;;;;;1.95;0.80;;;17.50;70.50;;;;;;6214942;23;19997;-72
2023/02/02 00:52:47;;;;;;;3.33;0.60;;;17.40;70.60;;;;;;6188436;23;20086;-72
2023/02/02 00:55:13;;;;;;;2.28;0.93;;;17.40;70.80;;;;;;6162976;23;20004;-71
2023/02/02 00:57:40;;;;;;;2.38;0.70;;;17.40;70.70;;;;;;6213636;23;20028;-72
2023/02/02 01:00:06;;;;;;;1.50;0.73;;;17.40;70.90;;;;;;6213305;23;19997;-72
2023/02/02 01:02:33;;;;;;;0.75;0.50;;;17.30;70.80;;;;;;6213358;23;20051;-72
2023/02/02 01:04:59;;;;;;;2.30;0.88;;;17.30;70.80;;;;;;6213431;23;20088;-72
2023/02/02 01:07:25;;;;;;;2.40;0.90;;;17.30;70.90;;;;;;6214625;23;20028;-72
2023/02/02 01:09:50;;;;;;;1.60;0.90;;;17.30;71.00;;;;;;6187948;23;20004;-72
2023/02/02 01:12:16;;;;;;;1.63;0.63;;;17.30;71.10;;;;;;6213132;23;20004;-72
2023/02/02 01:14:41;;;;;;;2.13;0.60;;;17.20;71.20;;;;;;6214614;23;20000;-72
2023/02/02 01:17:07;;;;;;;1.75;0.60;;;17.20;71.20;;;;;;6214489;23;20008;-72
2023/02/02 01:19:33;;;;;;;3.08;1.13;;;17.20;71.30;;;;;;6214779;23;20076;-72
2023/02/02 01:21:58;;;;;;;1.45;0.60;;;17.20;71.40;;;;;;6214572;23;20384;-72
2023/02/02 01:24:24;;;;;;;2.15;0.60;;;17.20;71.60;;;;;;6212903;23;21018;-72
2023/02/02 01:26:50;;;;;;;3.60;0.80;;;17.10;71.60;;;;;;6212913;23;20039;-72
2023/02/02 01:29:15;;;;;;;2.47;0.60;;;17.10;71.80;;;;;;6213011;23;20050;-72
2023/02/02 01:31:41;;;;;;;0.98;0.68;;;17.10;71.90;;;;;;6214716;23;20047;-72
2023/02/02 01:34:07;;;;;;;1.15;0.60;;;17.10;71.80;;;;;;6214298;23;20303;-72
2023/02/02 01:36:33;;;;;;;1.55;0.60;;;17.10;71.80;;;;;;6213000;23;20007;-72
2023/02/02 01:38:58;;;;;;;1.30;0.70;;;17.10;71.90;;;;;;6187926;23;20000;-71
2023/02/02 01:41:24;;;;;;;1.52;0.63;;;17.00;72.00;;;;;;6188047;23;20004;-72
2023/02/02 01:43:54;;;;;;;1.70;0.82;;;17.00;72.00;;;;;;6213072;23;20008;-72
2023/02/02 01:46:28;;;;;;;5.28;0.80;;;17.00;72.10;;;;;;6212941;23;20001;-72
2023/02/02 01:48:59;;;;;;;2.28;0.70;;;17.00;72.40;;;;;;6189668;23;20007;-72
2023/02/02 01:51:34;;;;;;;0.95;0.65;;;17.00;72.40;;;;;;6214485;23;20007;-72
2023/02/02 01:54:00;;;;;;;1.45;0.55;;;17.00;72.50;;;;;;6188638;23;20001;-72
2023/02/02 01:56:39;;;;;;;1.77;0.55;;;17.00;72.50;;;;;;6212845;23;20007;-72
2023/02/02 01:59:05;;;;;;;1.25;0.70;;;17.00;72.50;;;;;;6189010;23;20011;-71
2023/02/02 02:01:31;;;;;;;1.25;0.57;;;17.00;72.60;;;;;;6190134;23;20040;-72
2023/02/02 02:03:57;;;;;;;1.00;0.63;;;16.90;72.70;;;;;;6190187;23;20007;-72
2023/02/02 02:06:24;;;;;;;1.27;0.70;;;16.90;72.70;;;;;;6214898;23;20004;-72
2023/02/02 02:09:04;;;;;;;4.10;1.23;;;16.90;72.80;;;;;;6190424;23;20022;-72
2023/02/02 02:11:30;;;;;;;1.05;0.75;;;16.90;72.80;;;;;;6191608;23;20007;-72
2023/02/02 02:17:07;;;;;;;2.20;0.73;;;16.80;72.90;;;;;;6194016;23;20031;-72
2023/02/02 02:29:06;;;;;;;2.58;0.55;;;16.80;73.20;;;;;;6216374;23;20452;-72
2023/02/02 02:31:32;;;;;;;1.17;0.70;;;16.80;73.20;;;;;;6216374;23;19997;-72
2023/02/02 02:34:06;;;;;;;2.00;0.70;;;16.70;73.40;;;;;;6216058;23;20021;-72
2023/02/02 02:37:06;;;;;;;2.65;0.70;;;16.80;73.30;;;;;;6214544;23;20032;-72
2023/02/02 02:39:33;;;;;;;1.13;0.57;;;16.80;73.30;;;;;;6149945;23;20024;-72
2023/02/02 02:42:01;;;;;;;1.10;0.70;;;16.70;73.30;;;;;;6214651;23;20048;-72
2023/02/02 02:44:27;;;;;;;1.10;0.68;;;16.80;73.40;;;;;;6190007;23;20333;-72
2023/02/02 02:46:53;;;;;;;1.10;0.52;;;16.70;73.30;;;;;;6189627;23;20000;-72
2023/02/02 02:49:18;;;;;;;1.05;0.50;;;16.70;73.30;;;;;;6189645;23;20427;-71
2023/02/02 02:51:47;;;;;;;2.65;0.98;;;16.70;73.30;;;;;;6214297;23;19997;-72
2023/02/02 02:54:31;;;;;;;1.40;0.70;;;16.70;73.30;;;;;;6216005;23;20007;-72
2023/02/02 02:57:06;;;;;;;1.95;0.85;;;16.70;73.40;;;;;;6214853;23;20004;-72
2023/02/02 02:59:45;;;;;;;1.55;0.70;;;16.70;73.60;;;;;;6216060;23;20004;-72
2023/02/02 03:02:29;;;;;;;1.27;0.80;;;16.60;73.50;;;;;;6214437;23;20012;-71
2023/02/02 03:05:16;;;;;;;1.73;0.47;;;16.60;73.60;;;;;;6214655;23;20464;-72
2023/02/02 03:07:51;;;;;;;1.27;0.60;;;16.60;73.70;;;;;;6215691;23;20004;-72
2023/02/02 03:10:18;;;;;;;1.50;0.57;;;16.60;73.70;;;;;;6189466;23;20491;-72
2023/02/02 03:12:48;;;;;;;3.50;0.80;;;16.60;73.70;;;;;;6189626;23;20028;-72
2023/02/02 03:15:14;;;;;;;0.80;0.77;;;16.50;73.70;;;;;;6189351;23;20384;-72
2023/02/02 03:17:40;;;;;;;1.38;0.68;;;16.50;73.70;;;;;;6214387;23;20001;-72
2023/02/02 03:20:07;;;;;;;1.92;0.60;;;16.50;73.70;;;;;;6189217;23;20005;-72
2023/02/02 03:22:32;;;;;;;1.75;0.65;;;16.50;73.80;;;;;;6214656;23;20027;-72
2023/02/02 03:24:58;;;;;;;1.75;0.60;;;16.50;73.70;;;;;;6214157;23;20449;-72
2023/02/02 03:27:24;;;;;;;2.65;0.70;;;16.50;73.80;;;;;;6215426;23;20151;-72
2023/02/02 03:29:50;;;;;;;1.42;0.63;;;16.50;73.80;;;;;;6189254;23;20499;-72
2023/02/02 03:32:16;;;;;;;1.42;0.73;;;16.50;73.90;;;;;;6215721;23;19997;-72
2023/02/02 03:34:41;;;;;;;1.98;0.80;;;16.40;73.70;;;;;;6189071;23;20459;-71
2023/02/02 03:37:07;;;;;;;1.13;0.60;;;16.40;73.80;;;;;;6215763;23;20051;-72
2023/02/02 03:39:33;;;;;;;0.85;0.50;;;16.40;73.90;;;;;;6214105;23;20009;-71
2023/02/02 03:41:58;;;;;;;1.85;0.80;;;16.40;74.30;;;;;;6214135;23;20314;-72
2023/02/02 03:44:24;;;;;;;1.15;0.70;;;16.40;74.00;;;;;;6215353;23;20468;-72
2023/02/02 03:46:52;;;;;;;0.98;0.73;;;16.40;73.90;;;;;;6215235;23;20011;-72
2023/02/02 03:49:18;;;;;;;2.15;0.80;;;16.40;74.10;;;;;;6188689;23;20338;-72
2023/02/02 03:51:44;;;;;;;1.45;0.60;;;16.30;74.00;;;;;;6215619;23;19997;-72
2023/02/02 03:54:09;;;;;;;1.63;0.77;;;16.30;74.40;;;;;;6188746;23;20000;-72
2023/02/02 03:56:35;;;;;;;2.15;0.60;;;16.40;74.40;;;;;;6215330;23;20009;-72
2023/02/02 03:59:00;;;;;;;0.80;0.60;;;16.30;74.40;;;;;;6214133;23;20083;-71
2023/02/02 04:01:27;;;;;;;0.90;0.60;;;16.30;74.40;;;;;;6213802;23;20049;-72
2023/02/02 04:03:53;;;;;;;0.75;0.60;;;16.30;74.40;;;;;;6188992;23;20318;-72
2023/02/02 04:06:19;;;;;;;1.55;0.75;;;16.30;74.60;;;;;;6215259;23;20082;-72
2023/02/02 04:08:45;;;;;;;1.27;0.75;;;16.30;74.50;;;;;;6214004;23;20005;-71
2023/02/02 04:11:11;;;;;;;1.20;0.60;;;16.30;74.60;;;;;;6215126;23;20012;-72
2023/02/02 04:13:36;;;;;;;1.45;0.50;;;16.30;74.80;;;;;;6188912;23;20007;-72
2023/02/02 04:16:02;;;;;;;2.33;0.57;;;16.30;74.70;;;;;;6215224;23;20001;-72
2023/02/02 04:18:28;;;;;;;1.77;0.55;;;16.20;74.70;;;;;;6213452;23;20000;-72
2023/02/02 04:21:00;;;;;;;0.95;0.50;;;16.20;74.70;;;;;;6213957;23;20349;-72
2023/02/02 04:23:26;;;;;;;1.05;0.60;;;16.20;74.70;;;;;;6188498;23;20457;-71
2023/02/02 04:25:52;;;;;;;1.35;0.70;;;16.20;74.80;;;;;;6213477;23;20023;-71
2023/02/02 04:28:17;;;;;;;1.75;1.00;;;16.20;74.90;;;;;;6214961;23;20004;-72
2023/02/02 04:30:43;;;;;;;0.75;0.47;;;16.20;74.90;;;;;;6213601;23;19997;-71
2023/02/02 04:33:09;;;;;;;1.35;0.50;;;16.20;74.90;;;;;;6213495;23;20020;-71
2023/02/02 04:35:34;;;;;;;0.60;0.50;;;16.10;74.80;;;;;;6213457;23;20007;-71
2023/02/02 04:38:00;;;;;;;1.52;0.50;;;16.20;74.90;;;;;;6188602;23;20000;-72
2023/02/02 04:40:25;;;;;;;0.50;0.45;;;16.10;74.90;;;;;;6214830;23;20311;-72
2023/02/02 04:42:51;;;;;;;0.88;0.50;;;16.10;74.90;;;;;;6213856;23;20475;-72
2023/02/02 04:45:17;;;;;;;1.35;0.50;;;16.10;75.00;;;;;;6214828;23;20000;-72
2023/02/02 04:47:42;;;;;;;1.63;0.60;;;16.10;75.00;;;;;;6187856;23;20079;-72
2023/02/02 04:50:08;;;;;;;0.65;0.50;;;16.10;75.00;;;;;;6188426;23;20381;-72
2023/02/02 04:52:34;;;;;;;1.80;0.70;;;16.10;75.00;;;;;;6213250;23;20008;-72
2023/02/02 04:55:00;;;;;;;2.42;0.60;;;16.10;75.00;;;;;;6188548;23;20005;-72
2023/02/02 04:57:25;;;;;;;1.08;0.70;;;16.10;75.10;;;;;;6214648;23;20028;-72
2023/02/02 04:59:51;;;;;;;0.55;0.50;;;16.10;75.10;;;;;;6213445;23;20005;-72
2023/02/02 05:02:18;;;;;;;0.63;0.60;;;16.10;75.10;;;;;;6213023;23;20023;-72
2023/02/02 05:04:43;;;;;;;2.20;0.60;;;16.00;75.10;;;;;;6213339;23;20000;-72
2023/02/02 05:07:09;;;;;;;0.45;0.40;;;16.00;75.10;;;;;;6188230;23;20005;-71
2023/02/02 05:09:35;;;;;;;0.90;0.40;;;16.00;75.00;;;;;;6214680;23;20000;-72
2023/02/02 05:12:00;;;;;;;0.95;0.50;;;16.00;75.10;;;;;;6188202;23;20083;-72
2023/02/02 05:14:26;;;;;;;2.78;0.80;;;16.00;75.20;;;;;;6214474;23;19997;-72
2023/02/02 05:16:52;;;;;;;1.77;0.80;;;16.00;75.10;;;;;;6214464;23;20005;-72
2023/02/02 05:19:18;;;;;;;0.82;0.47;;;16.00;75.20;;;;;;6213138;23;20075;-72
2023/02/02 05:21:44;;;;;;;1.23;0.50;;;16.00;75.40;;;;;;6215000;23;20398;-72
2023/02/02 05:24:10;;;;;;;1.90;0.73;;;16.00;75.40;;;;;;6213435;23;20008;-72
2023/02/02 05:26:36;;;;;;;1.25;0.50;;;16.00;75.50;;;;;;6212447;23;20392;-72
2023/02/02 05:29:02;;;;;;;2.33;0.57;;;15.90;75.40;;;;;;6214608;23;20054;-73
2023/02/02 05:31:29;;;;;;;3.33;0.68;;;16.00;75.50;;;;;;6214229;23;20020;-72
2023/02/02 05:33:55;;;;;;;1.73;0.40;;;15.90;76.40;;;;;;6212749;23;19996;-72
2023/02/02 05:36:20;;;;;;;0.82;0.50;;;15.90;75.40;;;;;;6212960;23;20008;-72
2023/02/02 05:38:46;;;;;;;9.35;0.70;;;15.90;75.60;;;;;;6213101;23;20011;-72
2023/02/02 05:41:12;;;;;;;1.38;0.38;;;15.90;75.60;;;;;;6213121;23;20009;-72
2023/02/02 05:43:37;;;;;;;0.68;0.50;;;15.90;75.50;;;;;;6214479;23;20032;-72
2023/02/02 05:46:03;;;;;;;2.40;0.52;;;15.90;75.50;;;;;;6214134;23;20001;-72
2023/02/02 05:48:29;;;;;;;1.58;0.68;;;15.90;75.50;;;;;;6212802;23;20054;-72
2023/02/02 05:51:02;;;;;;;1.30;0.73;;;15.90;75.60;;;;;;6213059;23;20033;-72
2023/02/02 05:53:29;;;;;;;0.95;0.55;;;15.90;75.50;;;;;;6213093;23;20081;-72
2023/02/02 05:55:55;;;;;;;1.73;0.60;;;15.80;75.60;;;;;;6188084;23;20058;-71
2023/02/02 05:58:20;;;;;;;1.55;0.77;;;15.90;75.80;;;;;;6214433;23;20005;-71
2023/02/02 06:00:46;;;;;;;1.20;0.70;;;15.90;75.80;;;;;;6214107;23;20011;-71
2023/02/02 06:03:11;;;;;;;1.58;0.63;;;15.80;75.70;;;;;;6188176;23;20081;-72
2023/02/02 06:05:38;;;;;;;0.85;0.40;;;15.80;75.80;;;;;;6214245;23;20051;-72
2023/02/02 06:08:03;;;;;;;1.20;0.70;;;15.80;75.80;;;;;;6213048;23;20000;-71
2023/02/02 06:10:30;;;;;;;0.95;0.50;;;15.80;75.80;;;;;;6214395;23;20023;-71
2023/02/02 06:12:56;;;;;;;1.48;0.60;;;15.80;75.70;;;;;;6188226;23;20051;-71
2023/02/02 06:15:22;;;;;;;0.75;0.40;;;15.80;75.80;;;;;;6214026;23;20001;-72
2023/02/02 06:17:48;;;;;;;1.02;0.50;;;15.80;75.90;;;;;;6212935;23;20027;-72
2023/02/02 06:20:13;;;;;;;3.00;0.45;;;15.80;76.00;;;;;;6188150;23;20054;-72
2023/02/02 06:22:39;;;;;;;1.75;0.50;;;15.80;76.20;;;;;;6187619;23;20092;-72
2023/02/02 06:25:06;;;;;;;0.50;0.45;;;15.80;76.20;;;;;;6214266;23;20007;-72
2023/02/02 06:27:32;;;;;;;0.90;0.47;;;15.80;75.50;;;;;;6212822;23;20027;-72
2023/02/02 06:29:58;;;;;;;1.48;0.77;;;15.80;75.00;;;;;;6187768;23;20000;-72
2023/02/02 06:32:23;;;;;;;1.77;0.55;;;15.80;74.70;;;;;;6188127;23;20433;-71
2023/02/02 06:34:49;;;;;;;2.33;0.50;;;15.80;74.60;;;;;;6214312;23;19998;-71
2023/02/02 06:37:14;;;;;;;1.45;0.50;;;15.70;74.40;;;;;;6214361;23;20000;-71
2023/02/02 06:39:40;;;;;;;1.58;0.57;;;15.70;74.30;;;;;;6214243;23;20004;-71
2023/02/02 06:42:06;;;;;;;1.63;0.40;;;15.70;74.20;;;;;;6212843;23;20005;-71
2023/02/02 06:44:31;;;;;;;3.53;0.57;;;15.70;74.20;;;;;;6212559;23;20036;-71
2023/02/02 06:46:57;;;;;;;2.15;0.43;;;15.70;74.10;;;;;;6214758;23;20032;-69
2023/02/02 06:49:23;;;;;;;14.50;2.28;;;15.70;74.10;;;;;;6216014;23;20003;-69
2023/02/02 06:51:48;;;;;;;12.68;1.77;;;15.70;74.20;;;;;;6215840;23;20453;-68
2023/02/02 06:54:14;;;;;;;18.88;3.13;;;15.70;74.40;;;;;;6216262;23;20499;-68
2023/02/02 06:56:40;;;;;;;24.02;3.25;;;15.70;74.60;;;;;;6215900;23;20013;-68
2023/02/02 06:59:05;;;;;;;25.42;3.40;;;15.70;74.90;;;;;;6215649;23;20000;-69
2023/02/02 07:01:31;;;;;;;21.52;3.13;;;15.70;75.20;;;;;;6216079;23;20005;-68
2023/02/02 07:03:57;;;;;;;22.60;3.13;;;15.70;75.40;;;;;;6214580;23;20024;-69
2023/02/02 07:06:26;;;;;;;18.38;3.45;;;15.70;75.50;;;;;;6215978;23;20477;-69
2023/02/02 07:08:54;;;;;;;16.98;2.90;;;15.70;75.50;;;;;;6215853;23;20005;-67
2023/02/02 07:11:19;;;;;;;17.58;3.42;;;15.70;75.70;;;;;;6214382;23;20008;-68
2023/02/02 07:13:45;;;;;;;15.73;2.78;;;15.70;75.80;;;;;;6189129;23;20388;-69
2023/02/02 07:16:12;;;;;;;15.98;3.38;;;15.70;75.80;;;;;;6214490;23;20004;-68
2023/02/02 07:18:38;;;;;;;7.90;2.88;;;15.70;75.70;;;;;;6215580;23;20083;-68
2023/02/02 07:21:04;;;;;;;21.23;3.63;;;15.70;75.80;;;;;;6189583;23;20007;-69
2023/02/02 07:23:30;;;;;;;8.15;2.47;;;15.70;75.80;;;;;;6214579;23;20001;-69
2023/02/02 07:26:06;;;;;;;11.75;2.53;;;15.70;75.80;;;;;;6213828;23;20021;-69
2023/02/02 07:28:32;;;;;;;12.88;3.30;;;15.70;75.70;;;;;;6214080;23;20000;-69
2023/02/02 07:30:58;;;;;;;13.25;2.78;;;15.60;75.60;;;;;;6189342;23;20004;-69
2023/02/02 07:33:23;;;;;;;12.82;2.60;;;15.70;75.70;;;;;;6189319;23;20010;-69
2023/02/02 07:35:49;;;;;;;10.70;2.60;;;15.70;75.70;;;;;;6215550;23;20392;-69
2023/02/02 07:38:14;;;;;;;10.18;2.25;;;15.70;75.60;;;;;;6214313;23;20005;-69
2023/02/02 07:40:40;;;;;;;5.82;1.98;;;15.60;75.50;;;;;;6213906;23;20012;-68
2023/02/02 07:43:06;;;;;;;9.50;2.92;;;15.70;75.60;;;;;;6213232;23;20004;-68
2023/02/02 07:45:31;;;;;;;8.68;1.95;;;15.60;75.50;;;;;;6212082;23;20090;-68
2023/02/02 07:47:57;;;;;;;12.90;2.63;;;15.60;75.50;;;;;;6213183;23;20072;-68
2023/02/02 07:50:24;;;;;;;7.90;2.10;;;15.60;75.40;;;;;;6211831;23;20076;-68
2023/02/02 07:52:50;;;;;;;11.18;2.45;;;15.60;75.40;;;;;;6211439;23;20001;-68
2023/02/02 07:55:16;;;;;;;8.30;2.42;;;15.60;75.40;;;;;;6186887;23;20007;-68
2023/02/02 07:57:41;;;;;;;9.80;2.33;;;15.60;75.30;;;;;;6210976;23;20087;-68
2023/02/02 08:00:08;;;;;;;9.10;2.30;;;15.60;75.30;;;;;;6214155;23;20000;-68
2023/02/02 08:02:34;;;;;;;10.13;2.35;;;15.60;75.30;;;;;;6213070;23;20437;-68
2023/02/02 08:04:59;;;;;;;7.15;1.73;;;15.60;75.30;;;;;;6213385;23;20016;-68
2023/02/02 08:07:25;;;;;;;8.40;2.30;;;15.60;75.20;;;;;;6213819;23;20405;-69
2023/02/02 08:09:51;;;;;;;12.25;2.22;;;15.60;75.20;;;;;;6213814;23;20366;-69
2023/02/02 08:12:17;;;;;;;8.13;1.92;;;15.60;75.10;;;;;;6213631;23;20495;-68
2023/02/02 08:14:43;;;;;;;6.93;2.13;;;15.60;75.00;;;;;;6214853;23;19996;-68
2023/02/02 08:17:09;;;;;;;11.80;2.63;;;15.60;75.00;;;;;;6215184;23;20000;-68
2023/02/02 08:19:34;;;;;;;6.60;1.80;;;15.50;75.00;;;;;;6213814;23;20012;-68
2023/02/02 08:22:00;;;;;;;7.70;1.95;;;15.50;74.90;;;;;;6215156;23;20009;-68
2023/02/02 08:24:25;;;;;;;6.50;2.00;;;15.60;75.00;;;;;;6215025;23;20005;-69
2023/02/02 08:26:51;;;;;;;7.60;1.90;;;15.60;74.90;;;;;;6212863;23;20362;-68
2023/02/02 08:29:17;;;;;;;6.15;1.83;;;15.50;74.80;;;;;;6215102;23;20001;-68
2023/02/02 08:31:43;;;;;;;8.10;1.70;;;15.50;74.80;;;;;;6215041;23;20001;-68
2023/02/02 08:34:09;;;;;;;7.55;1.90;;;15.50;74.80;;;;;;6213875;23;20080;-68
2023/02/02 08:36:35;;;;;;;3.72;1.52;;;15.50;74.70;;;;;;6213509;23;20001;-69
2023/02/02 08:39:01;;;;;;;8.10;1.98;;;15.50;74.70;;;;;;6213151;23;20005;-68
2023/02/02 08:41:27;;;;;;;5.65;1.67;;;15.50;74.70;;;;;;6188810;23;20004;-69
2023/02/02 08:43:53;;;;;;;3.50;1.42;;;15.50;74.70;;;;;;6213416;23;20150;-68
2023/02/02 08:46:19;;;;;;;5.82;1.55;;;15.50;74.70;;;;;;6213595;23;20001;-68
2023/02/02 08:48:44;;;;;;;6.03;1.85;;;15.50;74.60;;;;;;6213289;23;20001;-68
2023/02/02 08:51:13;;;;;;;5.35;1.77;;;15.50;75.70;;;;;;6188538;23;20511;-68
2023/02/02 08:53:38;;;;;;;6.85;1.52;;;15.50;74.60;;;;;;6188637;23;20322;-68
2023/02/02 08:56:09;;;;;;;6.07;1.73;;;15.50;74.60;;;;;;6215049;23;20062;-68
2023/02/02 08:58:34;;;;;;;4.30;1.40;;;15.50;74.50;;;;;;6189333;23;20004;-68
2023/02/02 09:01:09;;;;;;;6.55;1.95;;;15.50;74.50;;;;;;6214622;23;20058;-68
2023/02/02 09:03:35;;;;;;;5.63;1.55;;;15.50;74.50;;;;;;6188845;23;20058;-69
2023/02/02 09:06:17;;;;;;;5.60;1.52;;;15.40;74.50;;;;;;6212990;23;20075;-68
2023/02/02 09:08:42;;;;;;;3.70;1.27;;;15.40;74.50;;;;;;6189976;23;20009;-69
2023/02/02 09:11:12;;;;;;;3.38;1.23;;;15.40;74.50;;;;;;6213282;23;20020;-69
2023/02/02 09:13:38;;;;;;;5.03;1.58;;;15.40;74.50;;;;;;6213417;23;20004;-68
2023/02/02 09:16:05;;;;;;;4.75;1.27;;;15.40;74.40;;;;;;6212847;23;20023;-68
2023/02/02 09:18:31;;;;;;;5.20;1.50;;;15.40;74.50;;;;;;6188430;23;20005;-68
2023/02/02 09:21:04;;;;;;;4.38;1.60;;;15.40;74.40;;;;;;6188199;23;20012;-68
2023/02/02 09:23:30;;;;;;;5.90;1.50;;;15.40;74.50;;;;;;6212846;23;20031;-68
2023/02/02 09:25:56;;;;;;;4.28;1.30;;;15.40;74.40;;;;;;6212523;23;20036;-69
2023/02/02 09:28:22;;;;;;;3.35;1.30;;;15.40;74.40;;;;;;6214688;23;20007;-68
2023/02/02 09:30:47;;;;;;;5.53;1.30;;;15.40;74.30;;;;;;6214489;23;19997;-68
2023/02/02 09:33:13;;;;;;;4.75;1.25;;;15.40;74.40;;;;;;6214565;23;20035;-68
2023/02/02 09:35:38;;;;;;;4.25;0.95;;;15.40;74.40;;;;;;6212995;23;20318;-68
2023/02/02 09:38:04;;;;;;;3.40;1.15;;;15.40;75.40;;;;;;6187891;23;20383;-69
2023/02/02 09:40:31;;;;;;;3.80;1.00;;;15.40;74.30;;;;;;6214570;23;20020;-68
2023/02/02 09:43:34;;;;;;;2.53;0.82;;;15.40;74.40;;;;;;6212990;23;20023;-68
2023/02/02 09:46:06;;;;;;;6.00;1.25;;;15.40;74.30;;;;;;6212749;23;20425;-68
2023/02/02 09:48:53;;;;;;;2.65;1.45;;;15.40;74.30;;;;;;6213103;23;20007;-68
2023/02/02 09:51:20;;;;;;;3.60;1.13;;;15.40;74.30;;;;;;6213164;23;19997;-68
2023/02/02 09:53:54;;;;;;;3.53;1.27;;;15.30;74.30;;;;;;6188044;23;20000;-69
2023/02/02 09:56:32;;;;;;;5.05;0.95;;;15.40;74.30;;;;;;6188311;23;20437;-68
2023/02/02 09:58:59;;;;;;;5.00;1.10;;;15.40;74.30;;;;;;6188911;23;20079;-68
2023/02/02 10:01:29;;;;;;;3.72;1.30;;;15.40;74.30;;;;;;6188351;23;20032;-68
2023/02/02 10:04:11;;;;;;;3.25;1.13;;;15.30;74.20;;;;;;6188627;23;20063;-68
2023/02/02 10:06:42;;;;;;;2.35;1.10;;;15.30;74.20;;;;;;6212788;23;20000;-68
2023/02/02 10:09:35;;;;;;;2.30;0.88;;;15.30;74.20;;;;;;6214417;23;20004;-68
2023/02/02 10:12:00;;;;;;;;;;;15.30;74.20;;;;;;6214706;23;20448;-69
2023/02/02 10:14:26;;;;;;;2.53;1.02;;;15.30;74.20;;;;;;6214434;23;19975;-68
2023/02/02 10:16:53;;;;;;;3.08;1.00;;;15.30;74.20;;;;;;6214162;23;20004;-68
2023/02/02 10:19:19;;;;;;;2.33;1.00;;;15.30;74.20;;;;;;6188104;23;20000;-69
2023/02/02 10:21:58;;;;;;;2.22;0.93;;;15.30;74.20;;;;;;6214330;23;20011;-68
2023/02/02 10:24:26;;;;;;;2.13;1.00;;;15.30;74.20;;;;;;6215066;23;20004;-68
2023/02/02 10:26:56;;;;;;;3.40;0.85;;;15.30;74.20;;;;;;6189833;23;20048;-69
2023/02/02 10:29:50;;;;;;;3.50;1.10;;;15.30;74.20;;;;;;6190121;23;20031;-68
2023/02/02 10:32:27;;;;;;;3.08;1.17;;;15.30;74.20;;;;;;6214951;23;20001;-69
2023/02/02 10:34:55;;;;;;;3.70;1.00;;;15.30;74.20;;;;;;6189969;23;20055;-69
2023/02/02 10:37:39;;;;;;;2.22;0.93;;;15.30;74.20;;;;;;6215810;23;20046;-68
2023/02/02 10:40:16;;;;;;;2.00;0.90;;;15.30;74.20;;;;;;6216170;23;20080;-68
2023/02/02 10:45:55;;;;;;;0.93;0.63;;;15.30;74.20;;;;;;6197014;23;20020;-69
2023/02/02 10:48:22;;;;;;;1.08;0.73;;;15.20;74.20;;;;;;6214573;23;20004;-68
2023/02/02 10:50:51;;;;;;;2.33;0.88;;;15.30;74.20;;;;;;6215823;23;20001;-68
2023/02/02 10:53:16;;;;;;;2.38;0.88;;;15.30;74.20;;;;;;6189820;23;20091;-68
2023/02/02 10:55:44;;;;;;;1.70;1.00;;;15.20;74.10;;;;;;6214688;23;20032;-69
2023/02/02 10:58:10;;;;;;;1.65;0.90;;;15.20;74.10;;;;;;6214528;23;19997;-69
2023/02/02 11:00:53;;;;;;;1.73;0.90;;;15.20;74.10;;;;;;6216057;23;20004;-68
2023/02/02 11:03:21;;;;;;;4.10;1.20;;;15.20;74.10;;;;;;6192575;23;20004;-68
2023/02/02 11:08:46;;;;;;;2.22;0.70;;;15.20;74.20;;;;;;6131870;23;20345;-68
2023/02/02 11:11:19;;;;;;;4.28;0.63;;;15.20;74.10;;;;;;6189637;23;20071;-68
2023/02/02 11:13:53;;;;;;;1.15;0.65;;;15.20;74.10;;;;;;6214310;23;20060;-69
2023/02/02 11:16:21;;;;;;;2.15;0.95;;;15.20;74.10;;;;;;6190068;23;20000;-68
2023/02/02 11:18:47;;;;;;;1.98;0.73;;;15.30;74.20;;;;;;6189635;23;20024;-68
2023/02/02 11:21:27;;;;;;;1.88;1.00;;;15.20;74.10;;;;;;6214219;23;20055;-68
2023/02/02 11:23:53;;;;;;;1.45;0.77;;;15.20;74.10;;;;;;6214208;23;20019;-69
2023/02/02 11:26:19;;;;;;;2.20;0.60;;;15.20;74.10;;;;;;6213997;23;20017;-68
2023/02/02 11:28:46;;;;;;;2.10;0.55;;;15.20;74.20;;;;;;6189284;23;20478;-68
2023/02/02 11:31:11;;;;;;;1.15;0.77;;;15.20;74.20;;;;;;6188926;23;20055;-69
2023/02/02 11:33:37;;;;;;;2.10;1.00;;;15.20;74.20;;;;;;6215416;23;20071;-69
2023/02/02 11:36:21;;;;;;;1.15;0.70;;;15.20;74.20;;;;;;6215432;23;20094;-68
2023/02/02 11:38:46;;;;;;;1.83;0.75;;;15.20;74.10;;;;;;6215552;23;20004;-68
2023/02/02 11:41:14;;;;;;;1.48;0.50;;;15.20;74.10;;;;;;6215438;23;20083;-68
2023/02/02 11:43:52;;;;;;;1.65;0.65;;;15.20;74.20;;;;;;6214269;23;20005;-69
2023/02/02 11:46:19;;;;;;;1.10;0.60;;;15.20;74.10;;;;;;6213928;23;20075;-68
2023/02/02 11:49:12;;;;;;;2.45;0.70;;;15.20;74.10;;;;;;6213838;23;20055;-69
2023/02/02 11:51:37;;;;;;;1.92;0.80;;;15.20;74.10;;;;;;6214284;23;20445;-68
2023/02/02 11:54:05;;;;;;;2.53;0.60;;;15.20;74.10;;;;;;6188789;23;20004;-68
2023/02/02 11:56:30;;;;;;;2.28;0.70;;;15.20;74.10;;;;;;6215369;23;20386;-68
2023/02/02 11:58:58;;;;;;;2.28;0.73;;;15.20;74.10;;;;;;6188773;23;20031;-68
2023/02/02 12:01:24;;;;;;;2.35;0.52;;;15.20;74.10;;;;;;6213813;23;20395;-68
2023/02/02 12:03:51;;;;;;;2.05;1.00;;;15.20;74.10;;;;;;6213557;23;20005;-69
2023/02/02 12:06:21;;;;;;;1.77;0.60;;;15.20;74.10;;;;;;6213731;23;20076;-68
2023/02/02 12:08:47;;;;;;;1.63;0.50;;;15.20;74.20;;;;;;6214039;23;20020;-68
2023/02/02 12:11:26;;;;;;;0.73;0.55;;;15.20;74.10;;;;;;6213854;23;20337;-68
2023/02/02 12:13:55;;;;;;;1.77;0.80;;;15.20;74.10;;;;;;6190058;23;20084;-69
2023/02/02 12:16:35;;;;;;;1.80;0.82;;;15.20;74.20;;;;;;6215340;23;20072;-68
2023/02/02 12:19:04;;;;;;;0.50;0.40;;;15.10;74.10;;;;;;6213512;23;20005;-68
2023/02/02 12:21:41;;;;;;;0.93;0.32;;;15.20;74.10;;;;;;6215364;23;20001;-68
2023/02/02 12:24:23;;;;;;;2.30;0.50;;;15.10;74.10;;;;;;6215516;23;20072;-68
2023/02/02 12:26:53;;;;;;;1.38;0.60;;;15.10;74.10;;;;;;6213456;23;20330;-68
2023/02/02 12:29:29;;;;;;;0.95;0.57;;;15.10;74.10;;;;;;6189186;23;20001;-68
2023/02/02 12:32:07;;;;;;;1.90;0.80;;;15.20;74.20;;;;;;6189300;23;20027;-69
2023/02/02 12:34:39;;;;;;;1.23;0.50;;;15.20;74.10;;;;;;6215031;23;20079;-68
2023/02/02 12:37:28;;;;;;;1.33;0.38;;;15.10;74.10;;;;;;6215008;23;20004;-68
2023/02/02 12:40:16;;;;;;;0.70;0.30;;;15.10;74.00;;;;;;6199146;23;20012;-68
2023/02/02 12:42:59;;;;;;;1.17;0.50;;;15.10;74.10;;;;;;6213558;23;20004;-68
2023/02/02 12:45:30;;;;;;;0.75;0.40;;;15.10;74.10;;;;;;6213614;23;20005;-68
2023/02/02 12:48:34;;;;;;;0.68;0.43;;;15.10;74.10;;;;;;6213226;23;20421;-68
2023/02/02 12:51:25;;;;;;;0.95;0.50;;;15.10;74.00;;;;;;6093634;23;20078;-69
2023/02/02 12:54:12;;;;;;;0.50;0.50;;;15.10;74.00;;;;;;6072319;23;20368;-68
2023/02/02 12:56:45;;;;;;;1.55;0.40;;;15.10;74.00;;;;;;6071072;23;20010;-68
2023/02/02 12:59:32;;;;;;;0.85;0.40;;;15.10;74.10;;;;;;6093598;23;20045;-69
2023/02/02 13:02:10;;;;;;;0.77;0.40;;;15.10;74.00;;;;;;6093521;23;20038;-68
2023/02/02 13:04:56;;;;;;;0.88;0.40;;;15.10;74.00;;;;;;6093614;23;20011;-68
2023/02/02 13:07:30;;;;;;;0.40;0.30;;;15.10;74.00;;;;;;6093264;23;20390;-68
2023/02/02 13:10:08;;;;;;;1.35;0.30;;;15.10;74.10;;;;;;6069798;23;20029;-68
2023/02/02 13:12:40;;;;;;;1.08;0.60;;;15.10;74.00;;;;;;6071059;23;20003;-68